sensor_id;sensor_type;location;lat;lon;timestamp;pressure;altitude;pressure_sealevel;temperature
82778;BMP280;72510;45.128;20.734;2023-09-07T00:08:15;100979.38;;;18.53
82778;BMP280;72510;45.128;20.734;2023-09-07T00:18:15;100982.53;;;18.57
82778;BMP280;72510;45.128;20.734;2023-09-07T00:28:15;100977.44;;;18.48
82778;BMP280;72510;45.128;20.734;2023-09-07T00:38:16;100969.06;;;18.51
82778;BMP280;72510;45.128;20.734;2023-09-07T00:48:16;100966.72;;;18.72
82778;BMP280;72510;45.128;20.734;2023-09-07T00:58:17;100969.16;;;18.70
82778;BMP280;72510;45.128;20.734;2023-09-07T01:08:32;100958.88;;;18.69
82778;BMP280;72510;45.128;20.734;2023-09-07T01:18:35;100956.25;;;18.63
82778;BMP280;72510;45.128;20.734;2023-09-07T01:28:36;100948.00;;;18.74
82778;BMP280;72510;45.128;20.734;2023-09-07T01:38:37;100955.97;;;18.66
82778;BMP280;72510;45.128;20.734;2023-09-07T01:48:38;100956.25;;;18.63
82778;BMP280;72510;45.128;20.734;2023-09-07T01:58:38;100961.34;;;18.66
82778;BMP280;72510;45.128;20.734;2023-09-07T02:08:39;100954.28;;;18.63
82778;BMP280;72510;45.128;20.734;2023-09-07T02:18:40;100966.28;;;18.62
82778;BMP280;72510;45.128;20.734;2023-09-07T02:28:40;100967.53;;;18.56
82778;BMP280;72510;45.128;20.734;2023-09-07T02:38:42;100970.63;;;18.41
82778;BMP280;72510;45.128;20.734;2023-09-07T02:48:43;100976.16;;;18.18
82778;BMP280;72510;45.128;20.734;2023-09-07T02:58:44;100982.66;;;17.98
82778;BMP280;72510;45.128;20.734;2023-09-07T03:08:44;100990.72;;;17.98
82778;BMP280;72510;45.128;20.734;2023-09-07T03:18:46;100999.75;;;18.07
82778;BMP280;72510;45.128;20.734;2023-09-07T03:28:47;101005.41;;;18.03
82778;BMP280;72510;45.128;20.734;2023-09-07T03:38:48;101009.84;;;18.00
82778;BMP280;72510;45.128;20.734;2023-09-07T03:48:49;101009.38;;;17.96
82778;BMP280;72510;45.128;20.734;2023-09-07T03:58:50;101023.84;;;17.93
82778;BMP280;72510;45.128;20.734;2023-09-07T04:08:51;101033.19;;;17.81
82778;BMP280;72510;45.128;20.734;2023-09-07T04:18:54;101032.50;;;17.58
82778;BMP280;72510;45.128;20.734;2023-09-07T04:28:55;101047.50;;;17.20
82778;BMP280;72510;45.128;20.734;2023-09-07T04:38:56;101048.47;;;17.33
82778;BMP280;72510;45.128;20.734;2023-09-07T04:48:56;101057.31;;;17.34
82778;BMP280;72510;45.128;20.734;2023-09-07T04:58:57;101061.94;;;17.45
82778;BMP280;72510;45.128;20.734;2023-09-07T05:08:58;101074.38;;;17.82
82778;BMP280;72510;45.128;20.734;2023-09-07T05:18:59;101077.84;;;18.29
82778;BMP280;72510;45.128;20.734;2023-09-07T05:29:00;101083.97;;;18.77
82778;BMP280;72510;45.128;20.734;2023-09-07T05:39:00;101097.16;;;19.41
82778;BMP280;72510;45.128;20.734;2023-09-07T05:49:01;101089.63;;;20.01
82778;BMP280;72510;45.128;20.734;2023-09-07T05:59:04;101093.16;;;20.66
82778;BMP280;72510;45.128;20.734;2023-09-07T06:09:05;101094.94;;;21.23
82778;BMP280;72510;45.128;20.734;2023-09-07T06:19:05;101115.78;;;21.68
82778;BMP280;72510;45.128;20.734;2023-09-07T06:29:06;101114.22;;;22.20
82778;BMP280;72510;45.128;20.734;2023-09-07T06:39:06;101120.13;;;22.73
82778;BMP280;72510;45.128;20.734;2023-09-07T06:49:07;101123.59;;;23.24
82778;BMP280;72510;45.128;20.734;2023-09-07T06:59:08;101125.06;;;23.69
82778;BMP280;72510;45.128;20.734;2023-09-07T07:09:09;101132.44;;;24.20
82778;BMP280;72510;45.128;20.734;2023-09-07T07:19:10;101129.75;;;24.73
82778;BMP280;72510;45.128;20.734;2023-09-07T07:29:11;101133.88;;;25.13
82778;BMP280;72510;45.128;20.734;2023-09-07T07:39:12;101143.59;;;25.46
82778;BMP280;72510;45.128;20.734;2023-09-07T07:49:13;101141.53;;;25.62
82778;BMP280;72510;45.128;20.734;2023-09-07T07:59:14;101141.09;;;26.06
82778;BMP280;72510;45.128;20.734;2023-09-07T08:09:15;101128.66;;;26.38
82778;BMP280;72510;45.128;20.734;2023-09-07T08:19:16;101135.69;;;26.66
82778;BMP280;72510;45.128;20.734;2023-09-07T08:29:17;101126.59;;;26.98
82778;BMP280;72510;45.128;20.734;2023-09-07T08:39:17;101127.97;;;27.51
82778;BMP280;72510;45.128;20.734;2023-09-07T08:49:18;101121.16;;;27.69
82778;BMP280;72510;45.128;20.734;2023-09-07T08:59:19;101126.38;;;28.22
82778;BMP280;72510;45.128;20.734;2023-09-07T09:09:24;101110.81;;;28.44
82778;BMP280;72510;45.128;20.734;2023-09-07T09:19:32;101104.31;;;28.58
82778;BMP280;72510;45.128;20.734;2023-09-07T09:29:34;101103.94;;;29.32
82778;BMP280;72510;45.128;20.734;2023-09-07T09:39:35;101105.91;;;29.41
82778;BMP280;72510;45.128;20.734;2023-09-07T09:49:36;101099.69;;;30.03
82778;BMP280;72510;45.128;20.734;2023-09-07T09:59:37;101096.69;;;30.20
82778;BMP280;72510;45.128;20.734;2023-09-07T10:09:40;101097.34;;;30.75
82778;BMP280;72510;45.128;20.734;2023-09-07T10:19:40;101077.06;;;31.39
82778;BMP280;72510;45.128;20.734;2023-09-07T10:29:45;101080.16;;;31.57
82778;BMP280;72510;45.128;20.734;2023-09-07T10:39:46;101072.75;;;31.59
82778;BMP280;72510;45.128;20.734;2023-09-07T10:49:47;101062.69;;;32.01
82778;BMP280;72510;45.128;20.734;2023-09-07T10:59:47;101056.78;;;32.99
82778;BMP280;72510;45.128;20.734;2023-09-07T11:09:51;101056.09;;;33.99
82778;BMP280;72510;45.128;20.734;2023-09-07T11:19:52;101065.09;;;35.44
82778;BMP280;72510;45.128;20.734;2023-09-07T11:29:52;101046.38;;;35.98
82778;BMP280;72510;45.128;20.734;2023-09-07T11:39:53;101045.25;;;36.84
82778;BMP280;72510;45.128;20.734;2023-09-07T11:49:53;101033.88;;;37.20
82778;BMP280;72510;45.128;20.734;2023-09-07T11:59:54;101025.72;;;37.98
82778;BMP280;72510;45.128;20.734;2023-09-07T12:09:54;101024.56;;;37.33
82778;BMP280;72510;45.128;20.734;2023-09-07T12:19:55;101009.16;;;38.56
82778;BMP280;72510;45.128;20.734;2023-09-07T12:29:55;101000.03;;;38.26
82778;BMP280;72510;45.128;20.734;2023-09-07T12:39:56;100995.84;;;35.10
82778;BMP280;72510;45.128;20.734;2023-09-07T12:49:56;100980.19;;;36.92
82778;BMP280;72510;45.128;20.734;2023-09-07T12:59:56;100990.69;;;35.03
82778;BMP280;72510;45.128;20.734;2023-09-07T13:09:58;100970.28;;;39.24
82778;BMP280;72510;45.128;20.734;2023-09-07T13:19:58;100972.44;;;39.98
82778;BMP280;72510;45.128;20.734;2023-09-07T13:29:58;100963.97;;;38.90
82778;BMP280;72510;45.128;20.734;2023-09-07T13:39:59;100959.91;;;38.65
82778;BMP280;72510;45.128;20.734;2023-09-07T13:49:59;100960.72;;;39.34
82778;BMP280;72510;45.128;20.734;2023-09-07T14:00:00;100953.06;;;38.70
82778;BMP280;72510;45.128;20.734;2023-09-07T14:10:01;100953.25;;;39.44
82778;BMP280;72510;45.128;20.734;2023-09-07T14:20:01;100941.41;;;41.23
82778;BMP280;72510;45.128;20.734;2023-09-07T14:30:02;100947.09;;;42.06
82778;BMP280;72510;45.128;20.734;2023-09-07T14:40:02;100939.75;;;39.67
82778;BMP280;72510;45.128;20.734;2023-09-07T14:50:07;100936.84;;;38.92
82778;BMP280;72510;45.128;20.734;2023-09-07T15:00:11;100937.63;;;40.50
82778;BMP280;72510;45.128;20.734;2023-09-07T15:10:11;100944.44;;;40.85
82778;BMP280;72510;45.128;20.734;2023-09-07T15:20:12;100938.97;;;40.95
82778;BMP280;72510;45.128;20.734;2023-09-07T15:30:13;100937.44;;;40.84
82778;BMP280;72510;45.128;20.734;2023-09-07T15:40:14;100942.03;;;40.63
82778;BMP280;72510;45.128;20.734;2023-09-07T15:50:14;100944.81;;;39.76
82778;BMP280;72510;45.128;20.734;2023-09-07T16:00:15;100927.00;;;37.01
82778;BMP280;72510;45.128;20.734;2023-09-07T16:10:16;100926.69;;;33.95
82778;BMP280;72510;45.128;20.734;2023-09-07T16:20:16;100934.41;;;32.26
82778;BMP280;72510;45.128;20.734;2023-09-07T16:30:17;100934.84;;;31.32
82778;BMP280;72510;45.128;20.734;2023-09-07T16:40:17;100938.94;;;30.37
82778;BMP280;72510;45.128;20.734;2023-09-07T16:50:18;100949.69;;;29.67
82778;BMP280;72510;45.128;20.734;2023-09-07T17:00:18;100947.97;;;28.87
82778;BMP280;72510;45.128;20.734;2023-09-07T17:10:18;100949.69;;;28.03
82778;BMP280;72510;45.128;20.734;2023-09-07T17:20:19;100957.16;;;27.27
82778;BMP280;72510;45.128;20.734;2023-09-07T17:30:19;100962.63;;;26.63
82778;BMP280;72510;45.128;20.734;2023-09-07T17:40:20;100966.53;;;26.00
82778;BMP280;72510;45.128;20.734;2023-09-07T17:50:20;100965.72;;;25.48
82778;BMP280;72510;45.128;20.734;2023-09-07T18:00:21;100974.56;;;25.23
82778;BMP280;72510;45.128;20.734;2023-09-07T18:10:21;100981.41;;;25.32
82778;BMP280;72510;45.128;20.734;2023-09-07T18:20:22;100985.47;;;25.23
82778;BMP280;72510;45.128;20.734;2023-09-07T18:30:22;100992.31;;;25.07
82778;BMP280;72510;45.128;20.734;2023-09-07T18:40:23;100991.47;;;24.81
82778;BMP280;72510;45.128;20.734;2023-09-07T18:50:23;100993.31;;;24.79
82778;BMP280;72510;45.128;20.734;2023-09-07T19:00:24;100991.78;;;24.15
82778;BMP280;72510;45.128;20.734;2023-09-07T19:10:24;100997.72;;;23.52
82778;BMP280;72510;45.128;20.734;2023-09-07T19:20:25;101008.75;;;23.46
82778;BMP280;72510;45.128;20.734;2023-09-07T19:30:26;100997.00;;;23.15
82778;BMP280;72510;45.128;20.734;2023-09-07T19:40:26;101005.16;;;23.15
82778;BMP280;72510;45.128;20.734;2023-09-07T19:50:27;101005.94;;;23.23
82778;BMP280;72510;45.128;20.734;2023-09-07T20:00:27;100997.81;;;23.31
82778;BMP280;72510;45.128;20.734;2023-09-07T20:10:27;100994.19;;;23.28
82778;BMP280;72510;45.128;20.734;2023-09-07T20:20:28;100981.88;;;22.91
82778;BMP280;72510;45.128;20.734;2023-09-07T20:30:28;100983.81;;;21.70
82778;BMP280;72510;45.128;20.734;2023-09-07T20:40:29;100989.03;;;21.34
82778;BMP280;72510;45.128;20.734;2023-09-07T20:50:30;100982.97;;;21.41
82778;BMP280;72510;45.128;20.734;2023-09-07T21:00:30;100979.56;;;20.87
82778;BMP280;72510;45.128;20.734;2023-09-07T21:10:30;100988.63;;;20.77
82778;BMP280;72510;45.128;20.734;2023-09-07T21:20:31;100975.97;;;20.39
82778;BMP280;72510;45.128;20.734;2023-09-07T21:30:31;100967.53;;;20.43
82778;BMP280;72510;45.128;20.734;2023-09-07T21:40:31;100966.72;;;20.48
82778;BMP280;72510;45.128;20.734;2023-09-07T21:50:32;100956.69;;;20.30
82778;BMP280;72510;45.128;20.734;2023-09-07T22:00:32;100964.16;;;20.23
82778;BMP280;72510;45.128;20.734;2023-09-07T22:10:33;100951.19;;;20.03
82778;BMP280;72510;45.128;20.734;2023-09-07T22:20:34;100960.13;;;19.79
82778;BMP280;72510;45.128;20.734;2023-09-07T22:30:35;100955.59;;;19.87
82778;BMP280;72510;45.128;20.734;2023-09-07T22:40:35;100967.19;;;20.01
82778;BMP280;72510;45.128;20.734;2023-09-07T22:50:36;100968.03;;;19.77
82778;BMP280;72510;45.128;20.734;2023-09-07T23:00:41;100965.09;;;19.56
82778;BMP280;72510;45.128;20.734;2023-09-07T23:10:41;100967.44;;;19.65
82778;BMP280;72510;45.128;20.734;2023-09-07T23:20:42;100956.22;;;19.37
82778;BMP280;72510;45.128;20.734;2023-09-07T23:30:42;100960.06;;;19.22
82778;BMP280;72510;45.128;20.734;2023-09-07T23:40:42;100956.53;;;19.08
82778;BMP280;72510;45.128;20.734;2023-09-07T23:50:44;100951.78;;;18.90
